createdAt,value
2018-05-07T00:00:51.176Z,17.55
2018-05-07T00:01:57.897Z,17.53
2018-05-07T00:03:04.651Z,17.52
2018-05-07T00:04:11.427Z,17.51
2018-05-07T00:05:18.098Z,17.49
2018-05-07T00:06:24.861Z,17.47
2018-05-07T00:07:31.670Z,17.45
2018-05-07T00:08:38.378Z,17.42
2018-05-07T00:09:45.186Z,17.41
2018-05-07T00:10:51.947Z,17.39
2018-05-07T00:11:58.700Z,17.35
2018-05-07T00:13:05.512Z,17.35
2018-05-07T00:14:12.555Z,17.33
2018-05-07T00:15:19.123Z,17.32
2018-05-07T00:16:25.926Z,17.30
2018-05-07T00:17:32.714Z,17.28
2018-05-07T00:18:39.466Z,17.26
2018-05-07T00:19:46.209Z,17.24
2018-05-07T00:20:52.952Z,17.23
2018-05-07T00:21:59.780Z,17.21
2018-05-07T00:23:06.522Z,17.20
2018-05-07T00:24:13.304Z,17.17
2018-05-07T00:25:20.031Z,17.16
2018-05-07T00:26:26.835Z,17.14
2018-05-07T00:27:33.581Z,17.14
2018-05-07T00:28:40.384Z,17.11
2018-05-07T00:29:47.079Z,17.10
2018-05-07T00:30:53.827Z,17.06
2018-05-07T00:32:00.566Z,17.05
2018-05-07T00:33:07.389Z,17.03
2018-05-07T00:34:14.103Z,17.01
2018-05-07T00:35:21.031Z,17.00
2018-05-07T00:36:27.843Z,16.97
2018-05-07T00:37:34.695Z,16.96
2018-05-07T00:38:41.492Z,16.93
2018-05-07T00:39:48.335Z,16.93
2018-05-07T00:40:55.060Z,16.92
2018-05-07T00:42:01.791Z,16.90
2018-05-07T00:43:08.580Z,16.87
2018-05-07T00:44:15.291Z,16.87
2018-05-07T00:45:22.048Z,16.84
2018-05-07T00:46:28.778Z,16.84
2018-05-07T00:47:35.529Z,16.79
2018-05-07T00:48:42.283Z,16.78
2018-05-07T00:49:49.010Z,16.76
2018-05-07T00:50:55.982Z,16.75
2018-05-07T00:52:02.700Z,16.74
2018-05-07T00:53:09.440Z,16.71
2018-05-07T00:54:16.412Z,16.70
2018-05-07T00:55:23.177Z,16.68
2018-05-07T00:56:29.914Z,16.67
2018-05-07T00:57:36.638Z,16.65
2018-05-07T00:58:43.390Z,16.63
2018-05-07T00:59:50.202Z,16.62
2018-05-07T01:00:57.001Z,16.60
2018-05-07T01:02:03.743Z,16.59
2018-05-07T01:03:10.519Z,16.55
2018-05-07T01:04:17.299Z,16.55
2018-05-07T01:05:24.005Z,16.53
2018-05-07T01:06:30.787Z,16.51
2018-05-07T01:07:37.554Z,16.51
2018-05-07T01:08:44.420Z,16.49
2018-05-07T01:09:51.196Z,16.47
2018-05-07T01:10:58.010Z,16.45
2018-05-07T01:12:04.845Z,16.44
2018-05-07T01:13:11.628Z,16.39
2018-05-07T01:14:18.416Z,16.41
2018-05-07T01:15:25.260Z,16.38
2018-05-07T01:16:32.013Z,16.37
2018-05-07T01:17:38.827Z,16.36
2018-05-07T01:18:45.722Z,16.34
2018-05-07T01:19:52.495Z,16.32
2018-05-07T01:20:59.272Z,16.31
2018-05-07T01:22:06.151Z,16.31
2018-05-07T01:23:12.938Z,16.29
2018-05-07T01:24:19.707Z,16.27
2018-05-07T01:25:26.594Z,16.25
2018-05-07T01:26:33.306Z,16.23
2018-05-07T01:27:40.114Z,16.22
2018-05-07T01:28:46.942Z,16.21
2018-05-07T01:29:53.692Z,16.20
2018-05-07T01:31:00.647Z,16.19
2018-05-07T01:32:07.502Z,16.18
2018-05-07T01:33:14.302Z,16.16
2018-05-07T01:34:21.092Z,16.14
2018-05-07T01:35:27.935Z,16.15
2018-05-07T01:36:34.706Z,16.12
2018-05-07T01:37:41.510Z,16.11
2018-05-07T01:38:48.394Z,16.10
2018-05-07T01:39:55.199Z,16.08
2018-05-07T01:41:01.986Z,16.08
2018-05-07T01:42:08.834Z,16.07
2018-05-07T01:43:15.638Z,16.04
2018-05-07T01:44:22.407Z,16.02
2018-05-07T01:45:29.434Z,16.04
2018-05-07T01:46:36.240Z,16.01
2018-05-07T01:47:43.266Z,16.00
2018-05-07T01:48:50.035Z,15.99
2018-05-07T01:49:56.863Z,15.97
2018-05-07T01:51:03.642Z,15.97
2018-05-07T01:52:10.396Z,15.96
2018-05-07T01:53:17.157Z,15.95
2018-05-07T01:54:23.930Z,15.93
2018-05-07T01:55:30.707Z,15.94
2018-05-07T01:56:37.507Z,15.91
2018-05-07T01:57:44.360Z,15.92
2018-05-07T01:58:51.133Z,15.89
2018-05-07T01:59:57.975Z,15.89
2018-05-07T02:01:04.806Z,15.87
2018-05-07T02:02:11.577Z,15.86
2018-05-07T02:03:18.406Z,15.86
2018-05-07T02:04:25.263Z,15.85
2018-05-07T02:05:32.028Z,15.85
2018-05-07T02:06:38.839Z,15.82
2018-05-07T02:07:45.604Z,15.81
2018-05-07T02:08:52.385Z,15.80
2018-05-07T02:09:59.168Z,15.79
2018-05-07T02:11:05.947Z,15.78
2018-05-07T02:12:12.843Z,15.77
2018-05-07T02:13:19.644Z,15.77
2018-05-07T02:14:26.600Z,15.75
2018-05-07T02:15:33.343Z,15.73
2018-05-07T02:16:40.168Z,15.72
2018-05-07T02:17:46.932Z,15.71
2018-05-07T02:18:53.758Z,15.70
2018-05-07T02:20:00.990Z,15.70
2018-05-07T02:21:08.159Z,15.70
2018-05-07T02:22:14.962Z,15.68
2018-05-07T02:23:21.711Z,15.68
2018-05-07T02:24:28.499Z,15.66
2018-05-07T02:25:35.301Z,15.65
2018-05-07T02:26:42.044Z,15.65
2018-05-07T02:27:48.906Z,15.63
2018-05-07T02:28:55.703Z,15.62
2018-05-07T02:30:02.498Z,15.61
2018-05-07T02:31:09.335Z,15.58
2018-05-07T02:32:16.108Z,15.59
2018-05-07T02:33:22.911Z,15.57
2018-05-07T02:34:29.783Z,15.57
2018-05-07T02:35:36.651Z,15.55
2018-05-07T02:36:43.492Z,15.54
2018-05-07T02:37:50.229Z,15.53
2018-05-07T02:38:57.127Z,15.52
2018-05-07T02:40:03.839Z,15.51
2018-05-07T02:41:10.716Z,15.51
2018-05-07T02:42:17.479Z,15.48
2018-05-07T02:43:24.258Z,15.48
2018-05-07T02:44:31.079Z,15.48
2018-05-07T02:45:37.827Z,15.44
2018-05-07T02:46:44.576Z,15.44
2018-05-07T02:47:51.338Z,15.42
2018-05-07T02:48:58.138Z,15.41
2018-05-07T02:50:05.308Z,15.41
2018-05-07T02:51:12.067Z,15.40
2018-05-07T02:52:18.803Z,15.38
2018-05-07T02:53:25.590Z,15.37
2018-05-07T02:54:32.363Z,15.34
2018-05-07T02:55:39.168Z,15.34
2018-05-07T02:56:45.910Z,15.33
2018-05-07T02:57:52.707Z,15.32
2018-05-07T02:58:59.495Z,15.30
2018-05-07T03:00:06.301Z,15.31
2018-05-07T03:01:13.071Z,15.27
2018-05-07T03:02:19.865Z,15.28
2018-05-07T03:03:26.821Z,15.27
2018-05-07T03:04:33.633Z,15.25
2018-05-07T03:05:40.528Z,15.25
2018-05-07T03:06:47.303Z,15.22
2018-05-07T03:07:54.148Z,15.21
2018-05-07T03:09:01.026Z,15.21
2018-05-07T03:10:07.732Z,15.19
2018-05-07T03:11:14.539Z,15.18
2018-05-07T03:12:21.282Z,15.17
2018-05-07T03:13:28.145Z,15.16
2018-05-07T03:14:34.938Z,15.14
2018-05-07T03:15:41.742Z,15.13
2018-05-07T03:16:48.602Z,15.11
2018-05-07T03:17:55.372Z,15.10
2018-05-07T03:19:02.139Z,15.08
2018-05-07T03:20:08.923Z,15.07
2018-05-07T03:21:15.732Z,15.06
2018-05-07T03:22:22.667Z,15.04
2018-05-07T03:23:29.547Z,15.04
2018-05-07T03:24:36.323Z,15.02
2018-05-07T03:25:43.062Z,15.02
2018-05-07T03:26:49.825Z,15.00
2018-05-07T03:27:56.646Z,15.00
2018-05-07T03:29:08.467Z,14.98
2018-05-07T03:30:15.363Z,14.98
2018-05-07T03:31:22.185Z,14.96
2018-05-07T03:32:24.103Z,14.95
2018-05-07T03:33:30.967Z,14.94
2018-05-07T03:34:37.812Z,14.93
2018-05-07T03:35:44.615Z,14.93
2018-05-07T03:36:51.436Z,14.91
2018-05-07T03:37:58.221Z,14.88
2018-05-07T03:39:05.015Z,14.88
2018-05-07T03:40:12.022Z,14.89
2018-05-07T03:41:18.911Z,14.85
2018-05-07T03:42:25.733Z,14.85
2018-05-07T03:43:32.635Z,14.83
2018-05-07T03:44:39.540Z,14.82
2018-05-07T03:45:46.459Z,14.81
2018-05-07T03:46:53.346Z,14.79
2018-05-07T03:48:00.510Z,14.79
2018-05-07T03:49:07.191Z,14.78
2018-05-07T03:50:13.959Z,14.76
2018-05-07T03:51:20.993Z,14.76
2018-05-07T03:52:27.783Z,14.74
2018-05-07T03:53:34.572Z,14.73
2018-05-07T03:54:41.306Z,14.72
2018-05-07T03:55:48.178Z,14.71
2018-05-07T03:56:54.946Z,14.69
2018-05-07T03:58:01.720Z,14.68
2018-05-07T03:59:08.623Z,14.68
2018-05-07T04:00:15.383Z,14.67
2018-05-07T04:01:22.140Z,14.66
2018-05-07T04:02:28.911Z,14.63
2018-05-07T04:03:35.735Z,14.62
2018-05-07T04:04:42.748Z,14.61
2018-05-07T04:05:49.583Z,14.61
2018-05-07T04:06:56.411Z,14.58
2018-05-07T04:08:03.327Z,14.58
2018-05-07T04:09:10.238Z,14.57
2018-05-07T04:10:17.118Z,14.56
2018-05-07T04:11:23.959Z,14.54
2018-05-07T04:12:30.702Z,14.53
2018-05-07T04:13:37.613Z,14.51
2018-05-07T04:14:44.423Z,14.50
2018-05-07T04:15:51.238Z,14.50
2018-05-07T04:16:58.058Z,14.48
2018-05-07T04:19:10.316Z,14.47
2018-05-07T04:20:17.255Z,14.45
2018-05-07T04:21:24.371Z,14.45
2018-05-07T04:22:31.375Z,14.42
2018-05-07T04:23:38.547Z,14.40
2018-05-07T04:24:45.540Z,14.39
2018-05-07T04:25:52.358Z,14.38
2018-05-07T04:26:59.134Z,14.37
2018-05-07T04:28:05.891Z,14.35
2018-05-07T04:29:12.690Z,14.35
2018-05-07T04:30:19.527Z,14.33
2018-05-07T04:31:26.283Z,14.33
2018-05-07T04:32:33.065Z,14.31
2018-05-07T04:33:39.917Z,14.30
2018-05-07T04:34:46.736Z,14.30
2018-05-07T04:35:53.491Z,14.28
2018-05-07T04:37:00.243Z,14.26
2018-05-07T04:38:07.104Z,14.25
2018-05-07T04:39:13.894Z,14.25
2018-05-07T04:40:20.688Z,14.23
2018-05-07T04:41:27.686Z,14.22
2018-05-07T04:42:34.469Z,14.20
2018-05-07T04:43:41.333Z,14.21
2018-05-07T04:44:48.158Z,14.19
2018-05-07T04:45:55.008Z,14.17
2018-05-07T04:47:01.777Z,14.17
2018-05-07T04:48:08.563Z,14.15
2018-05-07T04:49:15.347Z,14.14
2018-05-07T04:50:22.135Z,14.12
2018-05-07T04:51:28.926Z,14.13
2018-05-07T04:52:35.715Z,14.10
2018-05-07T04:53:42.475Z,14.10
2018-05-07T04:54:49.306Z,14.08
2018-05-07T04:55:56.075Z,14.08
2018-05-07T04:57:02.871Z,14.08
2018-05-07T04:58:09.666Z,14.06
2018-05-07T04:59:16.511Z,14.05
2018-05-07T05:00:23.345Z,14.03
2018-05-07T05:01:30.679Z,14.02
2018-05-07T05:02:37.146Z,14.02
2018-05-07T05:03:43.905Z,14.00
2018-05-07T05:04:51.050Z,14.00
2018-05-07T05:05:57.838Z,13.99
2018-05-07T05:07:04.546Z,13.98
2018-05-07T05:08:11.650Z,13.97
2018-05-07T05:09:18.374Z,13.97
2018-05-07T05:10:25.225Z,13.97
2018-05-07T05:11:32.006Z,13.94
2018-05-07T05:12:38.735Z,13.93
2018-05-07T05:13:45.470Z,13.92
2018-05-07T05:14:52.322Z,13.93
2018-05-07T05:15:59.041Z,13.92
2018-05-07T05:17:05.790Z,13.91
2018-05-07T05:18:12.523Z,13.90
2018-05-07T05:19:19.351Z,13.90
2018-05-07T05:20:26.114Z,13.89
2018-05-07T05:21:33.021Z,13.89
2018-05-07T05:22:39.703Z,13.87
2018-05-07T05:23:46.583Z,13.86
2018-05-07T05:24:53.287Z,13.86
2018-05-07T05:26:00.027Z,13.85
2018-05-07T05:27:06.806Z,13.86
2018-05-07T05:28:13.559Z,13.83
2018-05-07T05:29:20.391Z,13.81
2018-05-07T05:30:27.135Z,13.83
2018-05-07T05:31:33.934Z,13.82
2018-05-07T05:32:40.750Z,13.81
2018-05-07T05:33:47.526Z,13.80
2018-05-07T05:34:54.286Z,13.80
2018-05-07T05:36:01.082Z,13.80
2018-05-07T05:37:07.826Z,13.81
2018-05-07T05:38:14.523Z,13.79
2018-05-07T05:39:21.307Z,13.78
2018-05-07T05:40:28.085Z,13.79
2018-05-07T05:41:35.078Z,13.78
2018-05-07T05:42:41.826Z,13.79
2018-05-07T05:43:48.574Z,13.76
2018-05-07T05:44:55.598Z,13.78
2018-05-07T05:46:02.326Z,13.77
2018-05-07T05:47:09.070Z,13.79
2018-05-07T05:48:16.106Z,13.77
2018-05-07T05:49:22.913Z,13.78
2018-05-07T05:50:29.622Z,13.76
2018-05-07T05:51:36.347Z,13.78
2018-05-07T05:52:43.171Z,13.79
2018-05-07T05:53:49.891Z,13.77
2018-05-07T05:54:56.623Z,13.79
2018-05-07T05:56:03.344Z,13.80
2018-05-07T05:57:10.091Z,13.80
2018-05-07T05:58:16.783Z,13.82
2018-05-07T05:59:23.631Z,13.82
2018-05-07T06:00:30.338Z,13.80
2018-05-07T06:01:37.078Z,13.82
2018-05-07T06:02:43.807Z,13.83
2018-05-07T06:03:50.719Z,13.83
2018-05-07T06:04:57.391Z,13.84
2018-05-07T06:06:04.203Z,13.86
2018-05-07T06:07:10.971Z,13.86
2018-05-07T06:08:17.750Z,13.87
2018-05-07T06:09:24.559Z,13.87
2018-05-07T06:10:31.299Z,13.88
2018-05-07T06:11:38.117Z,13.90
2018-05-07T06:12:45.010Z,13.89
2018-05-07T06:13:51.838Z,13.91
2018-05-07T06:14:58.798Z,13.91
2018-05-07T06:16:05.494Z,13.93
2018-05-07T06:17:12.253Z,13.93
2018-05-07T06:18:19.035Z,13.95
2018-05-07T06:19:25.983Z,13.95
2018-05-07T06:20:32.748Z,13.99
2018-05-07T06:21:39.515Z,13.98
2018-05-07T06:22:46.269Z,13.99
2018-05-07T06:23:53.085Z,14.01
2018-05-07T06:24:59.884Z,14.03
2018-05-07T06:26:06.714Z,14.03
2018-05-07T06:27:13.632Z,14.06
2018-05-07T06:28:20.490Z,14.07
2018-05-07T06:29:27.276Z,14.08
2018-05-07T06:30:34.158Z,14.11
2018-05-07T06:31:40.974Z,14.12
2018-05-07T06:32:47.734Z,14.15
2018-05-07T06:33:54.538Z,14.16
2018-05-07T06:35:01.405Z,14.18
2018-05-07T06:36:08.355Z,14.20
2018-05-07T06:37:15.143Z,14.22
2018-05-07T06:38:21.948Z,14.24
2018-05-07T06:39:28.835Z,14.25
2018-05-07T06:40:35.591Z,14.27
2018-05-07T06:41:42.335Z,14.30
2018-05-07T06:42:49.134Z,14.30
2018-05-07T06:43:55.973Z,14.32
2018-05-07T06:45:02.753Z,14.34
2018-05-07T06:46:09.514Z,14.36
2018-05-07T06:47:16.299Z,14.39
2018-05-07T06:48:23.226Z,14.41
2018-05-07T06:49:30.337Z,14.43
2018-05-07T06:50:37.110Z,14.45
2018-05-07T06:51:43.886Z,14.48
2018-05-07T06:52:50.680Z,14.49
2018-05-07T06:53:57.456Z,14.52
2018-05-07T06:55:04.249Z,14.53
2018-05-07T06:56:11.023Z,14.55
2018-05-07T06:57:17.799Z,14.57
2018-05-07T06:58:24.546Z,14.59
2018-05-07T06:59:31.385Z,14.62
2018-05-07T07:00:38.270Z,14.63
2018-05-07T07:01:45.130Z,14.66
2018-05-07T07:02:52.014Z,14.68
2018-05-07T07:03:58.750Z,14.69
2018-05-07T07:05:05.487Z,14.72
2018-05-07T07:06:12.214Z,14.73
2018-05-07T07:07:19.240Z,14.76
2018-05-07T07:08:26.047Z,14.79
2018-05-07T07:09:32.672Z,14.80
2018-05-07T07:10:39.399Z,14.82
2018-05-07T07:11:46.090Z,14.83
2018-05-07T07:12:52.827Z,14.86
2018-05-07T07:13:59.699Z,14.89
2018-05-07T07:15:06.442Z,14.92
2018-05-07T07:16:13.187Z,14.94
2018-05-07T07:17:19.879Z,14.96
2018-05-07T07:18:26.642Z,14.98
2018-05-07T07:19:33.502Z,15.00
2018-05-07T07:20:40.346Z,15.02
2018-05-07T07:21:47.135Z,15.05
2018-05-07T07:22:53.787Z,15.07
2018-05-07T07:24:00.614Z,15.10
2018-05-07T07:25:07.317Z,15.11
2018-05-07T07:26:14.054Z,15.14
2018-05-07T07:27:20.822Z,15.16
2018-05-07T07:28:27.538Z,15.19
2018-05-07T07:29:34.274Z,15.20
2018-05-07T07:30:41.138Z,15.23
2018-05-07T07:31:47.933Z,15.26
2018-05-07T07:32:54.874Z,15.27
2018-05-07T07:34:01.722Z,15.30
2018-05-07T07:35:08.647Z,15.33
2018-05-07T07:36:15.492Z,15.36
2018-05-07T07:37:22.291Z,15.37
2018-05-07T07:38:28.986Z,15.41
2018-05-07T07:39:35.823Z,15.43
2018-05-07T07:40:42.550Z,15.46
2018-05-07T07:41:52.634Z,15.49
2018-05-07T07:42:56.072Z,15.51
2018-05-07T07:44:02.793Z,15.53
2018-05-07T07:45:09.626Z,15.56
2018-05-07T07:46:16.370Z,15.57
2018-05-07T07:47:23.095Z,15.60
2018-05-07T07:48:29.830Z,15.62
2018-05-07T07:49:36.598Z,15.65
2018-05-07T07:50:43.393Z,15.67
2018-05-07T07:51:50.227Z,15.68
2018-05-07T07:52:56.964Z,15.72
2018-05-07T07:54:03.794Z,15.72
2018-05-07T07:55:10.670Z,15.77
2018-05-07T07:56:17.378Z,15.79
2018-05-07T07:57:24.132Z,15.82
2018-05-07T07:58:30.954Z,15.85
2018-05-07T07:59:37.686Z,15.87
2018-05-07T08:00:44.479Z,15.88
2018-05-07T08:01:51.207Z,15.92
2018-05-07T08:02:58.154Z,15.95
2018-05-07T08:04:05.018Z,15.96
2018-05-07T08:05:11.908Z,15.98
2018-05-07T08:06:18.674Z,16.01
2018-05-07T08:07:25.474Z,16.03
2018-05-07T08:08:32.211Z,16.07
2018-05-07T08:09:39.014Z,16.09
2018-05-07T08:10:47.174Z,16.11
2018-05-07T08:11:52.552Z,16.13
2018-05-07T08:12:59.482Z,16.18
2018-05-07T08:14:06.306Z,16.19
2018-05-07T08:15:13.091Z,16.21
2018-05-07T08:16:19.938Z,16.25
2018-05-07T08:17:26.889Z,16.27
2018-05-07T08:18:33.788Z,16.29
2018-05-07T08:19:40.512Z,16.33
2018-05-07T08:20:47.262Z,16.35
2018-05-07T08:21:54.019Z,16.37
2018-05-07T08:23:00.846Z,16.38
2018-05-07T08:24:07.643Z,16.42
2018-05-07T08:25:14.403Z,16.45
2018-05-07T08:26:21.310Z,16.49
2018-05-07T08:27:28.138Z,16.50
2018-05-07T08:28:34.972Z,16.53
2018-05-07T08:29:41.788Z,16.55
2018-05-07T08:30:48.622Z,16.57
2018-05-07T08:31:55.410Z,16.60
2018-05-07T08:33:02.330Z,16.63
2018-05-07T08:34:09.098Z,16.65
2018-05-07T08:35:16.107Z,16.68
2018-05-07T08:36:22.916Z,16.70
2018-05-07T08:37:30.007Z,16.74
2018-05-07T08:38:36.843Z,16.76
2018-05-07T08:39:43.715Z,16.80
2018-05-07T08:40:51.018Z,16.83
2018-05-07T08:41:57.375Z,16.85
2018-05-07T08:43:04.159Z,16.88
2018-05-07T08:44:10.898Z,16.91
2018-05-07T08:45:17.698Z,16.93
2018-05-07T08:46:24.451Z,16.98
2018-05-07T08:47:31.251Z,16.99
2018-05-07T08:48:38.054Z,17.01
2018-05-07T08:49:44.834Z,17.04
2018-05-07T08:50:51.747Z,17.07
2018-05-07T08:51:58.446Z,17.09
2018-05-07T08:53:05.264Z,17.12
2018-05-07T08:54:11.990Z,17.15
2018-05-07T08:55:18.802Z,17.17
2018-05-07T08:56:25.631Z,17.20
2018-05-07T08:57:32.383Z,17.21
2018-05-07T08:58:40.015Z,17.25
2018-05-07T08:59:45.897Z,17.27
2018-05-07T09:00:52.650Z,17.30
2018-05-07T09:01:59.406Z,17.32
2018-05-07T09:03:06.170Z,17.35
2018-05-07T09:04:13.004Z,17.38
2018-05-07T09:05:19.775Z,17.40
2018-05-07T09:06:26.555Z,17.43
2018-05-07T09:07:33.332Z,17.46
2018-05-07T09:08:39.965Z,17.50
2018-05-07T09:09:47.788Z,17.52
2018-05-07T09:10:53.589Z,17.54
2018-05-07T09:12:00.328Z,17.59
2018-05-07T09:13:07.092Z,17.58
2018-05-07T09:14:13.881Z,17.62
2018-05-07T09:15:20.640Z,17.64
2018-05-07T09:16:27.392Z,17.68
2018-05-07T09:17:34.347Z,17.68
2018-05-07T09:18:41.136Z,17.74
2018-05-07T09:19:47.934Z,17.76
2018-05-07T09:20:54.687Z,17.77
2018-05-07T09:22:01.466Z,17.81
2018-05-07T09:23:08.157Z,17.83
2018-05-07T09:24:14.870Z,17.85
2018-05-07T09:25:21.594Z,17.89
2018-05-07T09:26:28.316Z,17.92
2018-05-07T09:27:35.014Z,17.93
2018-05-07T09:28:41.713Z,17.96
2018-05-07T09:29:48.534Z,17.97
2018-05-07T09:30:55.258Z,18.00
2018-05-07T09:32:03.077Z,18.05
2018-05-07T09:33:08.833Z,18.07
2018-05-07T09:34:15.666Z,18.09
2018-05-07T09:35:22.449Z,18.11
2018-05-07T09:36:29.198Z,18.14
2018-05-07T09:37:35.901Z,18.17
2018-05-07T09:38:42.607Z,18.20
2018-05-07T09:39:49.421Z,18.23
2018-05-07T09:40:56.139Z,18.25
2018-05-07T09:42:02.877Z,18.27
2018-05-07T09:43:09.672Z,18.30
2018-05-07T09:44:16.374Z,18.32
2018-05-07T09:45:23.294Z,18.35
2018-05-07T09:46:30.187Z,18.38
2018-05-07T09:47:37.006Z,18.39
2018-05-07T09:48:43.794Z,18.42
2018-05-07T09:49:50.674Z,18.45
2018-05-07T09:50:57.490Z,18.48
2018-05-07T09:52:04.186Z,18.50
2018-05-07T09:53:10.896Z,18.53
2018-05-07T09:54:17.595Z,18.56
2018-05-07T09:55:24.353Z,18.57
2018-05-07T09:56:31.049Z,18.61
2018-05-07T09:57:37.911Z,18.62
2018-05-07T09:58:44.758Z,18.65
2018-05-07T09:59:51.753Z,18.67
2018-05-07T10:00:58.526Z,18.71
2018-05-07T10:02:05.241Z,18.74
2018-05-07T10:03:11.935Z,18.76
2018-05-07T10:04:18.625Z,18.78
2018-05-07T10:05:25.363Z,18.80
2018-05-07T10:06:32.201Z,18.84
2018-05-07T10:07:39.291Z,18.87
2018-05-07T10:08:46.093Z,18.90
2018-05-07T10:09:53.102Z,18.91
2018-05-07T10:10:59.853Z,18.95
2018-05-07T10:12:06.595Z,18.97
2018-05-07T10:13:13.313Z,19.00
2018-05-07T10:14:20.026Z,19.04
2018-05-07T10:15:26.845Z,19.05
2018-05-07T10:16:33.587Z,19.08
2018-05-07T10:17:40.369Z,19.09
2018-05-07T10:18:47.374Z,19.12
2018-05-07T10:19:54.132Z,19.15
2018-05-07T10:21:00.896Z,19.17
2018-05-07T10:22:07.975Z,19.19
2018-05-07T10:23:14.679Z,19.21
2018-05-07T10:24:21.481Z,19.25
2018-05-07T10:25:28.222Z,19.27
2018-05-07T10:26:35.050Z,19.31
2018-05-07T10:27:41.799Z,19.31
2018-05-07T10:28:48.550Z,19.34
2018-05-07T10:29:55.395Z,19.36
2018-05-07T10:31:02.094Z,19.39
2018-05-07T10:32:08.885Z,19.40
2018-05-07T10:33:15.649Z,19.45
2018-05-07T10:34:22.426Z,19.47
2018-05-07T10:35:29.390Z,19.49
2018-05-07T10:36:36.126Z,19.51
2018-05-07T10:37:42.958Z,19.53
2018-05-07T10:38:49.979Z,19.55
2018-05-07T10:39:56.692Z,19.59
2018-05-07T10:41:03.437Z,19.60
2018-05-07T10:42:10.180Z,19.62
2018-05-07T10:43:16.974Z,19.64
2018-05-07T10:44:23.783Z,19.67
2018-05-07T10:45:30.535Z,19.69
2018-05-07T10:46:37.239Z,19.72
2018-05-07T10:47:44.029Z,19.73
2018-05-07T10:48:50.738Z,19.76
2018-05-07T10:49:57.427Z,19.78
2018-05-07T10:51:04.174Z,19.81
2018-05-07T10:52:11.326Z,19.83
2018-05-07T10:53:18.105Z,19.84
2018-05-07T10:54:24.894Z,19.87
2018-05-07T10:55:31.662Z,19.89
2018-05-07T10:56:38.398Z,19.91
2018-05-07T10:57:45.098Z,19.94
2018-05-07T10:58:51.841Z,19.95
2018-05-07T10:59:58.566Z,19.98
2018-05-07T11:01:05.370Z,20.00
2018-05-07T11:02:12.063Z,20.03
2018-05-07T11:03:18.884Z,20.05
2018-05-07T11:04:25.620Z,20.06
2018-05-07T11:05:32.318Z,20.09
2018-05-07T11:06:39.134Z,20.11
2018-05-07T11:07:45.911Z,20.15
2018-05-07T11:08:52.663Z,20.15
2018-05-07T11:09:59.408Z,20.17
2018-05-07T11:11:06.254Z,20.19
2018-05-07T11:12:13.011Z,20.21
2018-05-07T11:13:19.847Z,20.23
2018-05-07T11:14:26.707Z,20.26
2018-05-07T11:15:33.467Z,20.29
2018-05-07T11:16:40.258Z,20.29
2018-05-07T11:17:47.034Z,20.31
2018-05-07T11:18:53.991Z,20.35
2018-05-07T11:20:00.619Z,20.35
2018-05-07T11:21:07.467Z,20.37
2018-05-07T11:22:14.286Z,20.40
2018-05-07T11:23:21.087Z,20.43
2018-05-07T11:24:27.867Z,20.44
2018-05-07T11:25:34.736Z,20.47
2018-05-07T11:26:41.647Z,20.50
2018-05-07T11:27:48.770Z,20.51
2018-05-07T11:28:55.751Z,20.52
2018-05-07T11:30:02.547Z,20.56
2018-05-07T11:31:09.426Z,20.56
2018-05-07T11:32:16.385Z,20.59
2018-05-07T11:33:23.395Z,20.61
2018-05-07T11:34:30.342Z,20.64
2018-05-07T11:35:37.131Z,20.65
2018-05-07T11:36:43.923Z,20.68
2018-05-07T11:37:50.785Z,20.71
2018-05-07T11:38:57.578Z,20.71
2018-05-07T11:40:04.346Z,20.74
2018-05-07T11:41:11.085Z,20.74
2018-05-07T11:42:17.847Z,20.76
2018-05-07T11:43:24.710Z,20.79
2018-05-07T11:44:31.486Z,20.80
2018-05-07T11:45:38.266Z,20.83
2018-05-07T11:46:45.048Z,20.85
2018-05-07T11:47:51.910Z,20.86
2018-05-07T11:48:58.694Z,20.88
2018-05-07T11:50:05.463Z,20.89
2018-05-07T11:51:12.321Z,20.91
2018-05-07T11:52:19.071Z,20.92
2018-05-07T11:53:25.855Z,20.95
2018-05-07T11:54:32.754Z,20.95
2018-05-07T11:55:39.553Z,20.98
2018-05-07T11:56:46.320Z,20.99
2018-05-07T11:57:54.093Z,21.00
2018-05-07T11:58:59.883Z,21.04
2018-05-07T12:00:06.667Z,21.06
2018-05-07T12:01:13.495Z,21.08
2018-05-07T12:02:20.347Z,21.09
2018-05-07T12:03:27.135Z,21.12
2018-05-07T12:04:33.978Z,21.14
2018-05-07T12:05:40.770Z,21.15
2018-05-07T12:06:47.530Z,21.17
2018-05-07T12:07:54.306Z,21.19
2018-05-07T12:09:01.099Z,21.20
2018-05-07T12:10:08.055Z,21.22
2018-05-07T12:11:14.938Z,21.24
2018-05-07T12:12:21.684Z,21.26
2018-05-07T12:13:28.682Z,21.27
2018-05-07T12:14:35.495Z,21.29
2018-05-07T12:15:42.327Z,21.31
2018-05-07T12:16:49.003Z,21.33
2018-05-07T12:17:55.779Z,21.35
2018-05-07T12:19:02.571Z,21.37
2018-05-07T12:20:09.382Z,21.39
2018-05-07T12:21:16.131Z,21.41
2018-05-07T12:22:23.274Z,21.42
2018-05-07T12:23:29.996Z,21.44
2018-05-07T12:24:36.703Z,21.45
2018-05-07T12:25:43.526Z,21.47
2018-05-07T12:26:50.248Z,21.47
2018-05-07T12:27:56.982Z,21.49
2018-05-07T12:29:03.695Z,21.51
2018-05-07T12:30:10.423Z,21.54
2018-05-07T12:31:18.439Z,21.53
2018-05-07T12:32:24.150Z,21.55
2018-05-07T12:33:30.874Z,21.56
2018-05-07T12:34:37.694Z,21.58
2018-05-07T12:35:44.425Z,21.60
2018-05-07T12:36:51.194Z,21.60
2018-05-07T12:37:57.910Z,21.63
2018-05-07T12:39:04.698Z,21.66
2018-05-07T12:40:11.473Z,21.66
2018-05-07T12:41:18.203Z,21.66
2018-05-07T12:42:24.938Z,21.69
2018-05-07T12:43:31.717Z,21.70
2018-05-07T12:44:38.635Z,21.71
2018-05-07T12:45:45.415Z,21.71
2018-05-07T12:46:52.260Z,21.73
2018-05-07T12:47:58.960Z,21.75
2018-05-07T12:49:05.788Z,21.75
2018-05-07T12:50:12.507Z,21.79
2018-05-07T12:51:19.388Z,21.79
2018-05-07T12:52:26.344Z,21.80
2018-05-07T12:53:33.015Z,21.81
2018-05-07T12:54:39.934Z,21.83
2018-05-07T12:55:46.782Z,21.84
2018-05-07T12:56:53.516Z,21.85
2018-05-07T12:58:00.215Z,21.88
2018-05-07T12:59:07.092Z,21.89
2018-05-07T13:00:13.844Z,21.90
2018-05-07T13:01:20.615Z,21.91
2018-05-07T13:02:27.497Z,21.93
2018-05-07T13:03:34.406Z,21.94
2018-05-07T13:04:41.110Z,21.95
2018-05-07T13:05:47.847Z,21.96
2018-05-07T13:06:54.770Z,21.99
2018-05-07T13:08:01.486Z,22.00
2018-05-07T13:09:08.294Z,22.01
2018-05-07T13:10:15.100Z,22.03
2018-05-07T13:11:21.914Z,22.04
2018-05-07T13:12:28.723Z,22.04
2018-05-07T13:13:35.498Z,22.06
2018-05-07T13:14:42.222Z,22.07
2018-05-07T13:15:49.019Z,22.09
2018-05-07T13:16:55.943Z,22.09
2018-05-07T13:18:02.787Z,22.10
2018-05-07T13:19:09.759Z,22.11
2018-05-07T13:20:16.975Z,22.13
2018-05-07T13:21:23.937Z,22.15
2018-05-07T13:22:30.844Z,22.16
2018-05-07T13:23:37.778Z,22.17
2018-05-07T13:24:44.656Z,22.18
2018-05-07T13:25:51.540Z,22.19
2018-05-07T13:26:58.448Z,22.21
2018-05-07T13:28:05.383Z,22.21
2018-05-07T13:29:12.311Z,22.23
2018-05-07T13:30:19.259Z,22.23
2018-05-07T13:31:26.089Z,22.25
2018-05-07T13:32:33.700Z,22.26
2018-05-07T13:33:40.691Z,22.28
2018-05-07T13:34:46.757Z,22.28
2018-05-07T13:35:53.375Z,22.30
2018-05-07T13:37:01.332Z,22.30
2018-05-07T13:38:07.305Z,22.33
2018-05-07T13:39:14.266Z,22.35
2018-05-07T13:40:21.095Z,22.34
2018-05-07T13:41:27.960Z,22.36
2018-05-07T13:42:34.721Z,22.36
2018-05-07T13:43:42.416Z,22.37
2018-05-07T13:44:48.569Z,22.37
2018-05-07T13:45:55.920Z,22.40
2018-05-07T13:47:02.403Z,22.39
2018-05-07T13:48:09.222Z,22.41
2018-05-07T13:49:18.887Z,22.42
2018-05-07T13:50:23.252Z,22.44
2018-05-07T13:51:30.126Z,22.44
2018-05-07T13:52:37.321Z,22.45
2018-05-07T13:53:43.927Z,22.47
2018-05-07T13:54:50.860Z,22.47
2018-05-07T13:55:57.790Z,22.50
2018-05-07T13:57:04.947Z,22.49
2018-05-07T13:58:11.811Z,22.51
2018-05-07T13:59:18.589Z,22.51
2018-05-07T14:00:25.393Z,22.53
2018-05-07T14:01:32.167Z,22.53
2018-05-07T14:02:38.952Z,22.54
2018-05-07T14:03:45.738Z,22.55
2018-05-07T14:04:52.558Z,22.57
2018-05-07T14:05:59.482Z,22.57
2018-05-07T14:07:06.309Z,22.58
2018-05-07T14:08:12.993Z,22.59
2018-05-07T14:09:19.850Z,22.59
2018-05-07T14:10:26.624Z,22.61
2018-05-07T14:11:33.413Z,22.62
2018-05-07T14:12:40.288Z,22.64
2018-05-07T14:13:47.379Z,22.64
2018-05-07T14:14:53.922Z,22.65
2018-05-07T14:16:01.245Z,22.65
2018-05-07T14:17:07.623Z,22.66
2018-05-07T14:18:14.555Z,22.68
2018-05-07T14:19:21.350Z,22.69
2018-05-07T14:20:29.800Z,22.69
2018-05-07T14:21:35.155Z,22.71